sensor_id;sensor_type;location;lat;lon;timestamp;pressure;altitude;pressure_sealevel;temperature;humidity
45074;BME280;31570;51.688;5.860;2023-03-21T00:01:43;101555.56;;;20.25;46.71
45074;BME280;31570;51.688;5.860;2023-03-21T00:04:10;101553.72;;;20.25;46.33
45074;BME280;31570;51.688;5.860;2023-03-21T00:06:37;101549.44;;;20.23;46.82
45074;BME280;31570;51.688;5.860;2023-03-21T00:09:04;101540.88;;;20.28;46.60
45074;BME280;31570;51.688;5.860;2023-03-21T00:11:30;101540.00;;;20.27;46.44
45074;BME280;31570;51.688;5.860;2023-03-21T00:13:57;101538.31;;;20.26;46.43
45074;BME280;31570;51.688;5.860;2023-03-21T00:16:28;101545.44;;;20.27;46.70
45074;BME280;31570;51.688;5.860;2023-03-21T00:19:01;101534.84;;;20.24;46.55
45074;BME280;31570;51.688;5.860;2023-03-21T00:21:32;101535.97;;;20.21;46.69
45074;BME280;31570;51.688;5.860;2023-03-21T00:24:19;101531.13;;;20.25;46.73
45074;BME280;31570;51.688;5.860;2023-03-21T00:26:48;101538.56;;;20.23;46.62
45074;BME280;31570;51.688;5.860;2023-03-21T00:29:14;101529.41;;;20.24;46.49
45074;BME280;31570;51.688;5.860;2023-03-21T00:31:45;101529.16;;;20.27;46.71
45074;BME280;31570;51.688;5.860;2023-03-21T00:34:11;101520.69;;;20.20;46.66
45074;BME280;31570;51.688;5.860;2023-03-21T00:36:43;101520.53;;;20.22;46.45
45074;BME280;31570;51.688;5.860;2023-03-21T00:39:09;101519.69;;;20.21;46.54
45074;BME280;31570;51.688;5.860;2023-03-21T00:41:37;101519.09;;;20.18;46.86
45074;BME280;31570;51.688;5.860;2023-03-21T00:44:10;101514.66;;;20.17;46.86
45074;BME280;31570;51.688;5.860;2023-03-21T00:46:39;101518.25;;;20.17;46.73
45074;BME280;31570;51.688;5.860;2023-03-21T00:49:19;101513.66;;;20.18;46.90
45074;BME280;31570;51.688;5.860;2023-03-21T00:51:46;101518.13;;;20.19;46.69
45074;BME280;31570;51.688;5.860;2023-03-21T00:54:17;101514.53;;;20.18;46.61
45074;BME280;31570;51.688;5.860;2023-03-21T00:56:43;101508.81;;;20.21;46.68
45074;BME280;31570;51.688;5.860;2023-03-21T00:59:10;101502.53;;;20.21;46.77
45074;BME280;31570;51.688;5.860;2023-03-21T01:01:36;101501.09;;;20.17;46.61
45074;BME280;31570;51.688;5.860;2023-03-21T01:04:05;101504.56;;;20.19;46.57
45074;BME280;31570;51.688;5.860;2023-03-21T01:06:36;101503.81;;;20.17;46.79
45074;BME280;31570;51.688;5.860;2023-03-21T01:09:13;101497.66;;;20.15;46.71
45074;BME280;31570;51.688;5.860;2023-03-21T01:11:40;101497.66;;;20.15;46.86
45074;BME280;31570;51.688;5.860;2023-03-21T01:14:10;101491.97;;;20.18;47.06
45074;BME280;31570;51.688;5.860;2023-03-21T01:16:48;101486.13;;;20.22;46.61
45074;BME280;31570;51.688;5.860;2023-03-21T01:19:17;101481.09;;;20.18;46.60
45074;BME280;31570;51.688;5.860;2023-03-21T01:21:55;101481.63;;;20.12;46.92
45074;BME280;31570;51.688;5.860;2023-03-21T01:24:22;101480.94;;;20.10;47.00
45074;BME280;31570;51.688;5.860;2023-03-21T01:26:49;101478.91;;;20.12;46.95
45074;BME280;31570;51.688;5.860;2023-03-21T01:29:16;101473.22;;;20.15;47.00
45074;BME280;31570;51.688;5.860;2023-03-21T01:31:42;101464.09;;;20.16;46.78
45074;BME280;31570;51.688;5.860;2023-03-21T01:34:09;101468.25;;;20.20;46.83
45074;BME280;31570;51.688;5.860;2023-03-21T01:36:36;101466.56;;;20.19;46.51
45074;BME280;31570;51.688;5.860;2023-03-21T01:39:07;101462.84;;;20.20;46.78
45074;BME280;31570;51.688;5.860;2023-03-21T01:41:37;101450.53;;;20.16;46.67
45074;BME280;31570;51.688;5.860;2023-03-21T01:44:17;101455.53;;;20.20;46.80
45074;BME280;31570;51.688;5.860;2023-03-21T01:46:47;101453.09;;;20.17;46.76
45074;BME280;31570;51.688;5.860;2023-03-21T01:49:45;101448.25;;;20.21;46.70
45074;BME280;31570;51.688;5.860;2023-03-21T01:52:35;101453.53;;;20.13;46.71
45074;BME280;31570;51.688;5.860;2023-03-21T01:55:11;101449.06;;;20.12;46.68
45074;BME280;31570;51.688;5.860;2023-03-21T01:58:01;101446.34;;;20.12;46.82
45074;BME280;31570;51.688;5.860;2023-03-21T02:00:42;101440.94;;;20.12;46.93
45074;BME280;31570;51.688;5.860;2023-03-21T02:03:22;101434.53;;;20.13;46.78
45074;BME280;31570;51.688;5.860;2023-03-21T02:06:17;101429.78;;;20.15;46.87
45074;BME280;31570;51.688;5.860;2023-03-21T02:08:52;101435.50;;;20.12;46.87
45074;BME280;31570;51.688;5.860;2023-03-21T02:11:20;101435.38;;;20.13;46.93
45074;BME280;31570;51.688;5.860;2023-03-21T02:13:47;101429.09;;;20.13;46.84
45074;BME280;31570;51.688;5.860;2023-03-21T02:16:37;101415.91;;;20.08;47.15
45074;BME280;31570;51.688;5.860;2023-03-21T02:25:15;101415.78;;;20.10;47.12
45074;BME280;31570;51.688;5.860;2023-03-21T02:27:58;101405.78;;;20.10;46.83
45074;BME280;31570;51.688;5.860;2023-03-21T02:42:04;101391.94;;;20.13;46.81
45074;BME280;31570;51.688;5.860;2023-03-21T02:44:47;101395.78;;;20.11;46.87
45074;BME280;31570;51.688;5.860;2023-03-21T02:47:23;101391.38;;;20.10;46.75
45074;BME280;31570;51.688;5.860;2023-03-21T02:49:57;101386.34;;;20.05;46.89
45074;BME280;31570;51.688;5.860;2023-03-21T02:52:30;101389.66;;;20.09;46.95
45074;BME280;31570;51.688;5.860;2023-03-21T02:55:13;101381.38;;;20.10;46.76
45074;BME280;31570;51.688;5.860;2023-03-21T02:57:56;101388.66;;;20.10;47.01
45074;BME280;31570;51.688;5.860;2023-03-21T03:00:39;101378.94;;;20.07;46.94
45074;BME280;31570;51.688;5.860;2023-03-21T03:03:09;101384.34;;;20.07;47.03
45074;BME280;31570;51.688;5.860;2023-03-21T03:05:52;101386.50;;;20.04;47.20
45074;BME280;31570;51.688;5.860;2023-03-21T03:08:34;101391.06;;;20.03;46.99
45074;BME280;31570;51.688;5.860;2023-03-21T03:11:30;101391.66;;;20.07;46.96
45074;BME280;31570;51.688;5.860;2023-03-21T03:14:07;101388.78;;;20.08;46.99
45074;BME280;31570;51.688;5.860;2023-03-21T03:17:21;101385.94;;;20.10;47.17
45074;BME280;31570;51.688;5.860;2023-03-21T03:20:14;101384.94;;;20.11;46.80
45074;BME280;31570;51.688;5.860;2023-03-21T03:25:31;101376.09;;;20.09;46.95
45074;BME280;31570;51.688;5.860;2023-03-21T03:28:14;101372.09;;;20.13;46.82
45074;BME280;31570;51.688;5.860;2023-03-21T03:30:42;101375.09;;;20.10;46.83
45074;BME280;31570;51.688;5.860;2023-03-21T03:33:28;101365.94;;;20.11;47.00
45074;BME280;31570;51.688;5.860;2023-03-21T03:35:55;101374.09;;;20.11;46.96
45074;BME280;31570;51.688;5.860;2023-03-21T03:38:33;101363.22;;;20.11;47.12
45074;BME280;31570;51.688;5.860;2023-03-21T03:41:09;101359.22;;;20.15;46.65
45074;BME280;31570;51.688;5.860;2023-03-21T03:43:50;101355.09;;;20.11;46.85
45074;BME280;31570;51.688;5.860;2023-03-21T03:49:20;101352.53;;;20.09;46.89
45074;BME280;31570;51.688;5.860;2023-03-21T03:51:59;101349.81;;;20.09;46.78
45074;BME280;31570;51.688;5.860;2023-03-21T03:54:40;101359.09;;;20.07;47.13
45074;BME280;31570;51.688;5.860;2023-03-21T03:57:08;101359.09;;;20.07;46.97
45074;BME280;31570;51.688;5.860;2023-03-21T03:59:39;101353.94;;;20.04;47.20
45074;BME280;31570;51.688;5.860;2023-03-21T04:02:21;101357.66;;;20.02;47.04
45074;BME280;31570;51.688;5.860;2023-03-21T04:04:48;101350.47;;;20.01;46.98
45074;BME280;31570;51.688;5.860;2023-03-21T04:07:19;101343.94;;;20.04;47.16
45074;BME280;31570;51.688;5.860;2023-03-21T04:09:48;101340.22;;;20.05;47.00
45074;BME280;31570;51.688;5.860;2023-03-21T04:12:18;101342.78;;;20.07;46.90
45074;BME280;31570;51.688;5.860;2023-03-21T04:15:03;101338.38;;;20.06;46.89
45074;BME280;31570;51.688;5.860;2023-03-21T04:17:40;101336.38;;;20.08;46.94
45074;BME280;31570;51.688;5.860;2023-03-21T04:20:08;101334.78;;;20.05;46.97
45074;BME280;31570;51.688;5.860;2023-03-21T04:22:44;101337.22;;;20.08;46.89
45074;BME280;31570;51.688;5.860;2023-03-21T04:25:12;101342.06;;;20.05;47.04
45074;BME280;31570;51.688;5.860;2023-03-21T04:27:54;101339.06;;;20.08;47.02
45074;BME280;31570;51.688;5.860;2023-03-21T04:30:31;101335.66;;;20.06;46.85
45074;BME280;31570;51.688;5.860;2023-03-21T04:33:08;101327.38;;;20.07;46.79
45074;BME280;31570;51.688;5.860;2023-03-21T04:35:36;101328.22;;;20.08;46.83
45074;BME280;31570;51.688;5.860;2023-03-21T04:38:06;101325.25;;;20.11;46.88
45074;BME280;31570;51.688;5.860;2023-03-21T04:40:33;101326.09;;;20.11;46.82
45074;BME280;31570;51.688;5.860;2023-03-21T04:42:59;101323.94;;;20.05;46.85
45074;BME280;31570;51.688;5.860;2023-03-21T04:45:27;101325.94;;;20.03;46.97
45074;BME280;31570;51.688;5.860;2023-03-21T04:47:54;101318.50;;;20.05;47.00
45074;BME280;31570;51.688;5.860;2023-03-21T04:50:21;101319.38;;;20.06;46.90
45074;BME280;31570;51.688;5.860;2023-03-21T04:52:47;101313.69;;;20.09;46.96
45074;BME280;31570;51.688;5.860;2023-03-21T04:55:14;101317.09;;;20.11;46.79
45074;BME280;31570;51.688;5.860;2023-03-21T04:57:41;101309.22;;;20.08;46.94
45074;BME280;31570;51.688;5.860;2023-03-21T05:00:08;101306.50;;;20.08;46.68
45074;BME280;31570;51.688;5.860;2023-03-21T05:02:37;101310.22;;;20.07;46.98
45074;BME280;31570;51.688;5.860;2023-03-21T05:05:05;101308.66;;;20.04;47.03
45074;BME280;31570;51.688;5.860;2023-03-21T05:07:32;101317.38;;;20.08;46.82
45074;BME280;31570;51.688;5.860;2023-03-21T05:09:58;101309.97;;;20.10;46.96
45074;BME280;31570;51.688;5.860;2023-03-21T05:12:28;101317.09;;;20.11;46.74
45074;BME280;31570;51.688;5.860;2023-03-21T05:14:55;101314.53;;;20.09;46.72
45074;BME280;31570;51.688;5.860;2023-03-21T05:17:22;101310.09;;;20.08;46.74
45074;BME280;31570;51.688;5.860;2023-03-21T05:19:50;101313.97;;;20.06;47.10
45074;BME280;31570;51.688;5.860;2023-03-21T05:22:18;101310.22;;;20.07;46.97
45074;BME280;31570;51.688;5.860;2023-03-21T05:24:46;101306.50;;;20.08;46.89
45074;BME280;31570;51.688;5.860;2023-03-21T05:27:36;101303.81;;;20.08;46.83
45074;BME280;31570;51.688;5.860;2023-03-21T05:30:10;101305.22;;;20.12;46.80
45074;BME280;31570;51.688;5.860;2023-03-21T05:32:37;101306.25;;;20.11;46.76
45074;BME280;31570;51.688;5.860;2023-03-21T05:35:08;101303.22;;;20.04;46.65
45074;BME280;31570;51.688;5.860;2023-03-21T05:37:35;101301.38;;;20.05;46.84
45074;BME280;31570;51.688;5.860;2023-03-21T05:40:04;101291.09;;;20.08;46.83
45074;BME280;31570;51.688;5.860;2023-03-21T05:42:37;101294.53;;;20.10;46.83
45074;BME280;31570;51.688;5.860;2023-03-21T05:45:13;101292.25;;;20.06;47.00
45074;BME280;31570;51.688;5.860;2023-03-21T05:47:40;101293.94;;;20.07;46.88
45074;BME280;31570;51.688;5.860;2023-03-21T05:50:10;101286.09;;;20.04;47.12
45074;BME280;31570;51.688;5.860;2023-03-21T05:52:39;101290.22;;;20.08;46.82
45074;BME280;31570;51.688;5.860;2023-03-21T05:55:10;101288.53;;;20.07;47.51
45074;BME280;31570;51.688;5.860;2023-03-21T05:57:37;101285.66;;;20.08;46.70
45074;BME280;31570;51.688;5.860;2023-03-21T06:00:12;101285.81;;;20.07;47.10
45074;BME280;31570;51.688;5.860;2023-03-21T06:02:41;101286.81;;;20.06;46.76
45074;BME280;31570;51.688;5.860;2023-03-21T06:05:26;101283.81;;;20.09;46.68
45074;BME280;31570;51.688;5.860;2023-03-21T06:07:53;101283.94;;;20.07;46.83
45074;BME280;31570;51.688;5.860;2023-03-21T06:10:20;101285.66;;;20.08;46.79
45074;BME280;31570;51.688;5.860;2023-03-21T06:12:47;101288.38;;;20.08;46.65
45074;BME280;31570;51.688;5.860;2023-03-21T06:15:25;101289.38;;;20.07;46.81
45074;BME280;31570;51.688;5.860;2023-03-21T06:18:00;101282.38;;;20.05;46.85
45074;BME280;31570;51.688;5.860;2023-03-21T06:20:27;101287.69;;;20.06;46.77
45074;BME280;31570;51.688;5.860;2023-03-21T06:23:01;101287.78;;;20.05;46.92
45074;BME280;31570;51.688;5.860;2023-03-21T06:25:28;101288.25;;;20.10;46.83
45074;BME280;31570;51.688;5.860;2023-03-21T06:27:54;101281.97;;;20.09;46.81
45074;BME280;31570;51.688;5.860;2023-03-21T06:30:21;101278.97;;;20.12;46.62
45074;BME280;31570;51.688;5.860;2023-03-21T06:33:11;101294.69;;;20.09;46.75
45074;BME280;31570;51.688;5.860;2023-03-21T06:35:37;101286.53;;;20.09;46.79
45074;BME280;31570;51.688;5.860;2023-03-21T06:38:05;101294.53;;;20.10;46.73
45074;BME280;31570;51.688;5.860;2023-03-21T06:40:32;101293.53;;;20.11;46.76
45074;BME280;31570;51.688;5.860;2023-03-21T06:42:59;101293.41;;;20.13;46.57
45074;BME280;31570;51.688;5.860;2023-03-21T06:45:25;101287.13;;;20.12;46.80
45074;BME280;31570;51.688;5.860;2023-03-21T06:47:52;101294.38;;;20.12;46.67
45074;BME280;31570;51.688;5.860;2023-03-21T06:50:41;101286.22;;;20.12;46.57
45074;BME280;31570;51.688;5.860;2023-03-21T06:53:07;101289.09;;;20.10;46.75
45074;BME280;31570;51.688;5.860;2023-03-21T06:55:55;101291.09;;;20.08;46.83
45074;BME280;31570;51.688;5.860;2023-03-21T06:58:23;101290.22;;;20.08;46.94
45074;BME280;31570;51.688;5.860;2023-03-21T07:00:50;101291.66;;;20.12;46.86
45074;BME280;31570;51.688;5.860;2023-03-21T07:03:17;101294.09;;;20.15;46.52
45074;BME280;31570;51.688;5.860;2023-03-21T07:05:44;101282.53;;;20.13;46.75
45074;BME280;31570;51.688;5.860;2023-03-21T07:08:15;101287.97;;;20.13;46.54
45074;BME280;31570;51.688;5.860;2023-03-21T07:10:44;101286.09;;;20.13;46.79
45074;BME280;31570;51.688;5.860;2023-03-21T07:13:15;101292.38;;;20.14;46.63
45074;BME280;31570;51.688;5.860;2023-03-21T07:16:05;101294.09;;;20.15;46.54
45074;BME280;31570;51.688;5.860;2023-03-21T07:18:33;101288.56;;;20.16;46.57
45074;BME280;31570;51.688;5.860;2023-03-21T07:21:00;101300.25;;;20.17;46.55
45074;BME280;31570;51.688;5.860;2023-03-21T07:23:27;101296.53;;;20.18;46.47
45074;BME280;31570;51.688;5.860;2023-03-21T07:25:54;101307.28;;;20.19;46.54
45074;BME280;31570;51.688;5.860;2023-03-21T07:28:22;101299.53;;;20.15;46.59
45074;BME280;31570;51.688;5.860;2023-03-21T07:30:57;101312.13;;;20.16;46.47
45074;BME280;31570;51.688;5.860;2023-03-21T07:33:25;101310.38;;;20.15;46.61
45074;BME280;31570;51.688;5.860;2023-03-21T07:35:56;101306.97;;;20.13;46.68
45074;BME280;31570;51.688;5.860;2023-03-21T07:38:24;101309.69;;;20.13;46.62
45074;BME280;31570;51.688;5.860;2023-03-21T07:40:51;101306.97;;;20.13;46.51
45074;BME280;31570;51.688;5.860;2023-03-21T07:43:19;101308.53;;;20.15;46.62
45074;BME280;31570;51.688;5.860;2023-03-21T07:45:50;101315.69;;;20.16;46.41
45074;BME280;31570;51.688;5.860;2023-03-21T07:48:16;101319.09;;;20.18;46.58
45074;BME280;31570;51.688;5.860;2023-03-21T07:50:44;101323.09;;;20.14;46.48
45074;BME280;31570;51.688;5.860;2023-03-21T07:53:10;101324.22;;;20.12;46.63
45074;BME280;31570;51.688;5.860;2023-03-21T07:55:37;101325.69;;;20.16;46.59
45074;BME280;31570;51.688;5.860;2023-03-21T07:58:04;101322.09;;;20.15;46.71
45074;BME280;31570;51.688;5.860;2023-03-21T08:00:31;101325.97;;;20.13;46.67
45074;BME280;31570;51.688;5.860;2023-03-21T08:02:58;101317.09;;;20.11;46.81
45074;BME280;31570;51.688;5.860;2023-03-21T08:05:35;101317.38;;;20.08;46.64
45074;BME280;31570;51.688;5.860;2023-03-21T08:08:04;101321.09;;;20.07;46.82
45074;BME280;31570;51.688;5.860;2023-03-21T08:10:31;101316.25;;;20.10;46.75
45074;BME280;31570;51.688;5.860;2023-03-21T08:12:58;101316.50;;;20.07;46.58
45074;BME280;31570;51.688;5.860;2023-03-21T08:15:26;101311.50;;;20.02;47.00
45074;BME280;31570;51.688;5.860;2023-03-21T08:17:52;101311.50;;;20.02;46.81
45074;BME280;31570;51.688;5.860;2023-03-21T08:20:20;101301.63;;;20.01;46.97
45074;BME280;31570;51.688;5.860;2023-03-21T08:22:48;101300.09;;;19.99;47.19
45074;BME280;31570;51.688;5.860;2023-03-21T08:25:16;101295.94;;;20.05;47.01
45074;BME280;31570;51.688;5.860;2023-03-21T08:27:45;101295.81;;;20.06;47.01
45074;BME280;31570;51.688;5.860;2023-03-21T08:30:15;101293.22;;;20.05;46.90
45074;BME280;31570;51.688;5.860;2023-03-21T08:32:41;101284.81;;;20.08;46.82
45074;BME280;31570;51.688;5.860;2023-03-21T08:35:10;101282.38;;;20.05;46.98
45074;BME280;31570;51.688;5.860;2023-03-21T08:37:38;101273.94;;;20.08;46.79
45074;BME280;31570;51.688;5.860;2023-03-21T08:40:11;101267.66;;;20.07;46.81
45074;BME280;31570;51.688;5.860;2023-03-21T08:42:39;101275.53;;;20.10;46.71
45074;BME280;31570;51.688;5.860;2023-03-21T08:45:07;101275.69;;;20.09;46.82
45074;BME280;31570;51.688;5.860;2023-03-21T08:47:34;101280.22;;;20.08;46.84
45074;BME280;31570;51.688;5.860;2023-03-21T08:50:00;101281.13;;;20.09;47.05
45074;BME280;31570;51.688;5.860;2023-03-21T08:52:27;101273.94;;;20.08;46.85
45074;BME280;31570;51.688;5.860;2023-03-21T08:54:54;101268.69;;;20.06;46.94
45074;BME280;31570;51.688;5.860;2023-03-21T08:57:20;101264.09;;;20.07;46.92
45074;BME280;31570;51.688;5.860;2023-03-21T08:59:47;101272.25;;;20.07;46.94
45074;BME280;31570;51.688;5.860;2023-03-21T09:02:15;101271.09;;;19.99;46.96
45074;BME280;31570;51.688;5.860;2023-03-21T09:04:42;101268.69;;;20.06;46.91
45074;BME280;31570;51.688;5.860;2023-03-21T09:07:11;101275.22;;;20.04;46.81
45074;BME280;31570;51.688;5.860;2023-03-21T09:09:40;101273.53;;;20.02;46.77
45074;BME280;31570;51.688;5.860;2023-03-21T09:12:07;101272.06;;;19.98;46.76
45074;BME280;31570;51.688;5.860;2023-03-21T09:14:33;101271.09;;;19.99;47.00
45074;BME280;31570;51.688;5.860;2023-03-21T09:17:00;101269.06;;;20.01;47.13
45074;BME280;31570;51.688;5.860;2023-03-21T09:19:27;101265.78;;;19.98;46.96
45074;BME280;31570;51.688;5.860;2023-03-21T09:21:55;101256.53;;;20.00;47.06
45074;BME280;31570;51.688;5.860;2023-03-21T09:24:22;101258.81;;;20.05;46.92
45074;BME280;31570;51.688;5.860;2023-03-21T09:26:49;101252.53;;;20.05;46.86
45074;BME280;31570;51.688;5.860;2023-03-21T09:29:17;101250.97;;;20.02;46.88
45074;BME280;31570;51.688;5.860;2023-03-21T09:31:48;101246.09;;;19.96;47.32
45074;BME280;31570;51.688;5.860;2023-03-21T09:34:15;101243.09;;;19.99;47.18
45074;BME280;31570;51.688;5.860;2023-03-21T09:36:41;101238.81;;;19.96;47.20
45074;BME280;31570;51.688;5.860;2023-03-21T09:39:10;101236.53;;;20.01;47.15
45074;BME280;31570;51.688;5.860;2023-03-21T09:49:58;101236.53;;;20.01;47.15
45074;BME280;31570;51.688;5.860;2023-03-21T09:52:54;101237.25;;;20.04;47.06
45074;BME280;31570;51.688;5.860;2023-03-21T09:55:29;101228.81;;;20.07;47.02
45074;BME280;31570;51.688;5.860;2023-03-21T09:58:39;101222.41;;;20.08;46.95
45074;BME280;31570;51.688;5.860;2023-03-21T10:01:11;101216.41;;;20.04;46.89
45074;BME280;31570;51.688;5.860;2023-03-21T10:03:48;101219.25;;;20.02;46.98
45074;BME280;31570;51.688;5.860;2023-03-21T10:06:19;101215.69;;;20.02;47.23
45074;BME280;31570;51.688;5.860;2023-03-21T10:09:05;101205.69;;;20.02;47.20
45074;BME280;31570;51.688;5.860;2023-03-21T10:11:42;101205.69;;;20.02;47.14
45074;BME280;31570;51.688;5.860;2023-03-21T10:14:18;101206.66;;;20.01;47.36
45074;BME280;31570;51.688;5.860;2023-03-21T10:16:50;101201.69;;;20.07;47.34
45074;BME280;31570;51.688;5.860;2023-03-21T10:19:19;101198.53;;;20.01;47.09
45074;BME280;31570;51.688;5.860;2023-03-21T10:21:47;101195.69;;;20.03;47.18
45074;BME280;31570;51.688;5.860;2023-03-21T10:24:28;101189.41;;;20.02;47.14
45074;BME280;31570;51.688;5.860;2023-03-21T10:26:57;101193.84;;;20.04;47.15
45074;BME280;31570;51.688;5.860;2023-03-21T10:29:27;101185.41;;;20.07;47.19
45074;BME280;31570;51.688;5.860;2023-03-21T10:31:55;101191.56;;;20.09;47.00
45074;BME280;31570;51.688;5.860;2023-03-21T10:34:35;101185.41;;;20.07;47.13
45074;BME280;31570;51.688;5.860;2023-03-21T10:37:03;101185.13;;;20.10;47.01
45074;BME280;31570;51.688;5.860;2023-03-21T10:39:51;101179.13;;;20.06;46.92
45074;BME280;31570;51.688;5.860;2023-03-21T10:44:48;101171.84;;;20.07;47.41
45074;BME280;31570;51.688;5.860;2023-03-21T10:47:29;101168.97;;;20.08;47.00
45074;BME280;31570;51.688;5.860;2023-03-21T10:50:01;101173.53;;;20.08;47.08
45074;BME280;31570;51.688;5.860;2023-03-21T10:52:34;101167.16;;;20.09;47.12
45074;BME280;31570;51.688;5.860;2023-03-21T10:57:41;101166.25;;;19.98;47.56
45074;BME280;31570;51.688;5.860;2023-03-21T11:00:18;101157.53;;;19.95;47.54
45074;BME280;31570;51.688;5.860;2023-03-21T11:02:48;101168.56;;;19.93;47.55
45074;BME280;31570;51.688;5.860;2023-03-21T11:05:32;101164.84;;;19.94;47.66
45074;BME280;31570;51.688;5.860;2023-03-21T11:08:03;101176.97;;;20.00;47.50
45074;BME280;31570;51.688;5.860;2023-03-21T11:10:36;101175.97;;;20.11;47.22
45074;BME280;31570;51.688;5.860;2023-03-21T11:13:16;101180.25;;;20.04;47.52
45074;BME280;31570;51.688;5.860;2023-03-21T11:18:22;101178.56;;;20.02;47.45
45074;BME280;31570;51.688;5.860;2023-03-21T11:20:54;101178.56;;;20.02;47.54
45074;BME280;31570;51.688;5.860;2023-03-21T11:23:25;101180.09;;;20.05;47.65
45074;BME280;31570;51.688;5.860;2023-03-21T11:25:52;101178.97;;;20.08;47.48
45074;BME280;31570;51.688;5.860;2023-03-21T11:28:23;101171.69;;;20.08;47.42
45074;BME280;31570;51.688;5.860;2023-03-21T11:30:51;101173.53;;;20.08;47.58
45074;BME280;31570;51.688;5.860;2023-03-21T11:33:21;101167.16;;;20.09;47.43
45074;BME280;31570;51.688;5.860;2023-03-21T11:36:05;101166.25;;;20.08;47.46
45074;BME280;31570;51.688;5.860;2023-03-21T11:38:38;101154.44;;;20.09;47.14
45074;BME280;31570;51.688;5.860;2023-03-21T11:41:05;101165.41;;;20.08;47.58
45074;BME280;31570;51.688;5.860;2023-03-21T11:43:38;101169.13;;;20.07;47.51
45074;BME280;31570;51.688;5.860;2023-03-21T11:46:09;101155.56;;;20.07;47.51
45074;BME280;31570;51.688;5.860;2023-03-21T11:48:43;101166.69;;;20.04;47.51
45074;BME280;31570;51.688;5.860;2023-03-21T11:51:27;101152.84;;;20.07;47.56
45074;BME280;31570;51.688;5.860;2023-03-21T11:54:14;101162.84;;;20.06;47.49
45074;BME280;31570;51.688;5.860;2023-03-21T11:56:48;101152.84;;;20.07;47.46
45074;BME280;31570;51.688;5.860;2023-03-21T12:02:01;101137.69;;;20.04;47.66
45074;BME280;31570;51.688;5.860;2023-03-21T12:07:26;101135.16;;;20.02;47.58
45074;BME280;31570;51.688;5.860;2023-03-21T12:09:59;101133.13;;;20.05;47.57
45074;BME280;31570;51.688;5.860;2023-03-21T12:12:52;101136.69;;;20.05;47.54
45074;BME280;31570;51.688;5.860;2023-03-21T12:18:31;101122.28;;;20.05;47.65
45074;BME280;31570;51.688;5.860;2023-03-21T12:24:13;101113.72;;;19.99;47.68
45074;BME280;31570;51.688;5.860;2023-03-21T12:27:56;101116.00;;;20.04;47.79
45074;BME280;31570;51.688;5.860;2023-03-21T12:32:46;101098.88;;;20.04;47.79
45074;BME280;31570;51.688;5.860;2023-03-21T12:37:54;101094.28;;;19.94;48.08
45074;BME280;31570;51.688;5.860;2023-03-21T12:44:03;101093.44;;;19.94;47.96
45074;BME280;31570;51.688;5.860;2023-03-21T12:46:40;101092.59;;;19.93;48.28
45074;BME280;31570;51.688;5.860;2023-03-21T12:49:17;101084.44;;;19.93;48.03
45074;BME280;31570;51.688;5.860;2023-03-21T12:51:51;101085.31;;;19.94;48.12
45074;BME280;31570;51.688;5.860;2023-03-21T12:59:39;101082.31;;;19.97;48.02
45074;BME280;31570;51.688;5.860;2023-03-21T13:02:29;101083.72;;;20.01;47.91
45074;BME280;31570;51.688;5.860;2023-03-21T13:07:33;101078.59;;;19.98;48.02
45074;BME280;31570;51.688;5.860;2023-03-21T13:10:11;101076.31;;;19.93;48.28
45074;BME280;31570;51.688;5.860;2023-03-21T13:13:00;101070.88;;;19.93;48.33
45074;BME280;31570;51.688;5.860;2023-03-21T13:15:38;101062.19;;;19.99;48.05
45074;BME280;31570;51.688;5.860;2023-03-21T13:21:19;101062.88;;;20.01;48.07
45074;BME280;31570;51.688;5.860;2023-03-21T13:24:18;101067.44;;;20.01;48.06
45074;BME280;31570;51.688;5.860;2023-03-21T13:26:47;101056.47;;;20.02;47.85
45074;BME280;31570;51.688;5.860;2023-03-21T13:29:32;101053.03;;;20.00;48.11
45074;BME280;31570;51.688;5.860;2023-03-21T13:32:16;101061.31;;;19.99;48.12
45074;BME280;31570;51.688;5.860;2023-03-21T13:35:18;101053.03;;;20.00;48.00
45074;BME280;31570;51.688;5.860;2023-03-21T13:37:51;101053.75;;;20.02;47.71
45074;BME280;31570;51.688;5.860;2023-03-21T13:42:55;101041.31;;;20.10;47.72
45074;BME280;31570;51.688;5.860;2023-03-21T13:45:44;101044.88;;;20.10;47.71
45074;BME280;31570;51.688;5.860;2023-03-21T13:48:29;101031.69;;;20.15;47.49
45074;BME280;31570;51.688;5.860;2023-03-21T13:51:03;101026.72;;;20.11;47.66
45074;BME280;31570;51.688;5.860;2023-03-21T13:53:38;101032.44;;;20.08;47.79
45074;BME280;31570;51.688;5.860;2023-03-21T14:04:04;101025.72;;;20.12;47.85
45074;BME280;31570;51.688;5.860;2023-03-21T14:06:36;101011.00;;;20.14;47.52
45074;BME280;31570;51.688;5.860;2023-03-21T14:09:04;101022.31;;;20.10;47.83
45074;BME280;31570;51.688;5.860;2023-03-21T14:11:32;101018.59;;;20.11;47.75
45074;BME280;31570;51.688;5.860;2023-03-21T14:14:03;101009.31;;;20.13;47.75
45074;BME280;31570;51.688;5.860;2023-03-21T14:16:30;101008.00;;;20.17;47.38
45074;BME280;31570;51.688;5.860;2023-03-21T14:19:03;100998.00;;;20.18;47.52
45074;BME280;31570;51.688;5.860;2023-03-21T14:21:34;101001.72;;;20.17;47.75
45074;BME280;31570;51.688;5.860;2023-03-21T14:24:06;100990.69;;;20.18;47.76
45074;BME280;31570;51.688;5.860;2023-03-21T14:26:41;100980.31;;;20.14;47.77
45074;BME280;31570;51.688;5.860;2023-03-21T14:29:09;100991.16;;;20.14;47.80
45074;BME280;31570;51.688;5.860;2023-03-21T14:31:53;100985.72;;;20.14;47.76
45074;BME280;31570;51.688;5.860;2023-03-21T14:34:20;100995.72;;;20.13;47.82
45074;BME280;31570;51.688;5.860;2023-03-21T14:36:47;100990.16;;;20.15;47.75
45074;BME280;31570;51.688;5.860;2023-03-21T14:39:31;100993.56;;;20.17;47.58
45074;BME280;31570;51.688;5.860;2023-03-21T14:42:07;100984.59;;;20.16;47.96